sensor_id;sensor_type;location;lat;lon;timestamp;pressure;altitude;pressure_sealevel;temperature;humidity
21153;BME280;10734;44.792;20.482;2023-05-02T06:04:53;99980.66;;;16.38;nan
21153;BME280;10734;44.792;20.482;2023-05-02T06:07:20;99977.78;;;16.51;nan
21153;BME280;10734;44.792;20.482;2023-05-02T06:09:46;99981.84;;;16.56;nan
21153;BME280;10734;44.792;20.482;2023-05-02T06:12:13;99975.16;;;16.72;nan
21153;BME280;10734;44.792;20.482;2023-05-02T06:14:41;99988.88;;;16.82;nan
21153;BME280;10734;44.792;20.482;2023-05-02T06:17:08;99982.91;;;16.99;nan
21153;BME280;10734;44.792;20.482;2023-05-02T06:19:35;99979.38;;;17.08;nan
21153;BME280;10734;44.792;20.482;2023-05-02T06:22:02;99984.59;;;17.32;nan
21153;BME280;10734;44.792;20.482;2023-05-02T06:24:28;99988.41;;;17.41;nan
21153;BME280;10734;44.792;20.482;2023-05-02T06:26:55;99980.22;;;17.41;nan
21153;BME280;10734;44.792;20.482;2023-05-02T06:29:22;99995.81;;;17.39;nan
21153;BME280;10734;44.792;20.482;2023-05-02T06:31:48;99981.16;;;17.51;nan
21153;BME280;10734;44.792;20.482;2023-05-02T06:34:16;99991.97;;;17.62;nan
21153;BME280;10734;44.792;20.482;2023-05-02T06:36:43;99990.53;;;17.79;nan
21153;BME280;10734;44.792;20.482;2023-05-02T06:39:10;99990.25;;;18.03;nan
21153;BME280;10734;44.792;20.482;2023-05-02T06:41:37;99993.28;;;18.10;nan
21153;BME280;10734;44.792;20.482;2023-05-02T06:44:03;99993.13;;;18.32;nan
21153;BME280;10734;44.792;20.482;2023-05-02T06:46:30;99991.41;;;18.31;nan
21153;BME280;10734;44.792;20.482;2023-05-02T06:48:57;99978.84;;;18.59;nan
21153;BME280;10734;44.792;20.482;2023-05-02T06:51:24;99985.81;;;18.73;nan
21153;BME280;10734;44.792;20.482;2023-05-02T06:53:51;100000.78;;;18.79;nan
21153;BME280;10734;44.792;20.482;2023-05-02T06:56:18;99984.25;;;18.90;nan
21153;BME280;10734;44.792;20.482;2023-05-02T06:58:44;99983.56;;;19.17;nan
21153;BME280;10734;44.792;20.482;2023-05-02T07:01:11;99988.75;;;19.30;nan
21153;BME280;10734;44.792;20.482;2023-05-02T07:03:38;99983.13;;;19.31;nan
21153;BME280;10734;44.792;20.482;2023-05-02T07:06:05;99977.78;;;19.49;nan
21153;BME280;10734;44.792;20.482;2023-05-02T07:08:32;99988.03;;;19.57;nan
21153;BME280;10734;44.792;20.482;2023-05-02T07:10:58;99976.50;;;19.73;nan
21153;BME280;10734;44.792;20.482;2023-05-02T07:13:25;99989.28;;;19.62;nan
21153;BME280;10734;44.792;20.482;2023-05-02T07:15:52;99992.19;;;19.71;nan
21153;BME280;10734;44.792;20.482;2023-05-02T07:18:19;99982.09;;;19.91;nan
21153;BME280;10734;44.792;20.482;2023-05-02T07:20:46;99985.19;;;20.05;nan
21153;BME280;10734;44.792;20.482;2023-05-02T07:23:13;99967.03;;;20.14;nan
21153;BME280;10734;44.792;20.482;2023-05-02T07:25:40;99985.44;;;20.22;nan
21153;BME280;10734;44.792;20.482;2023-05-02T07:28:07;99977.75;;;20.35;nan
21153;BME280;10734;44.792;20.482;2023-05-02T07:30:33;99991.50;;;20.16;nan
21153;BME280;10734;44.792;20.482;2023-05-02T07:33:00;99995.34;;;20.23;nan
21153;BME280;10734;44.792;20.482;2023-05-02T07:35:27;99979.13;;;20.21;nan
21153;BME280;10734;44.792;20.482;2023-05-02T07:37:53;99983.25;;;20.25;nan
21153;BME280;10734;44.792;20.482;2023-05-02T07:40:21;99991.38;;;20.45;nan
21153;BME280;10734;44.792;20.482;2023-05-02T07:42:47;99999.25;;;20.48;nan
21153;BME280;10734;44.792;20.482;2023-05-02T07:45:16;99998.75;;;20.72;nan
21153;BME280;10734;44.792;20.482;2023-05-02T07:47:44;99982.69;;;20.87;nan
21153;BME280;10734;44.792;20.482;2023-05-02T07:50:11;99995.88;;;20.73;nan
21153;BME280;10734;44.792;20.482;2023-05-02T07:52:37;99988.72;;;20.90;nan
21153;BME280;10734;44.792;20.482;2023-05-02T07:55:04;99996.63;;;20.66;nan
21153;BME280;10734;44.792;20.482;2023-05-02T07:57:31;99974.13;;;20.72;nan
21153;BME280;10734;44.792;20.482;2023-05-02T07:59:58;99994.16;;;20.72;nan
21153;BME280;10734;44.792;20.482;2023-05-02T08:02:25;99985.81;;;20.92;nan
21153;BME280;10734;44.792;20.482;2023-05-02T08:04:52;99986.22;;;20.97;nan
21153;BME280;10734;44.792;20.482;2023-05-02T08:07:19;99993.16;;;20.91;nan
21153;BME280;10734;44.792;20.482;2023-05-02T08:09:47;99987.94;;;21.34;nan
21153;BME280;10734;44.792;20.482;2023-05-02T08:12:14;99996.44;;;21.40;nan
21153;BME280;10734;44.792;20.482;2023-05-02T08:14:40;99995.44;;;21.32;nan
21153;BME280;10734;44.792;20.482;2023-05-02T08:17:07;99986.94;;;21.53;nan
21153;BME280;10734;44.792;20.482;2023-05-02T08:19:34;99990.72;;;22.04;nan
21153;BME280;10734;44.792;20.482;2023-05-02T08:22:00;99986.25;;;22.20;nan
21153;BME280;10734;44.792;20.482;2023-05-02T08:24:27;99994.53;;;22.29;nan
21153;BME280;10734;44.792;20.482;2023-05-02T08:26:54;99993.84;;;22.35;nan
21153;BME280;10734;44.792;20.482;2023-05-02T08:29:32;100002.25;;;22.07;nan
21153;BME280;10734;44.792;20.482;2023-05-02T08:31:59;99986.75;;;22.16;nan
21153;BME280;10734;44.792;20.482;2023-05-02T08:34:26;99992.88;;;22.44;nan
21153;BME280;10734;44.792;20.482;2023-05-02T08:36:53;100006.06;;;22.40;nan
21153;BME280;10734;44.792;20.482;2023-05-02T08:39:21;99991.38;;;22.15;nan
21153;BME280;10734;44.792;20.482;2023-05-02T08:41:48;100003.75;;;21.76;nan
21153;BME280;10734;44.792;20.482;2023-05-02T08:44:16;99997.81;;;21.62;nan
21153;BME280;10734;44.792;20.482;2023-05-02T08:46:43;100001.59;;;21.43;nan
21153;BME280;10734;44.792;20.482;2023-05-02T08:49:14;100007.63;;;21.47;nan
21153;BME280;10734;44.792;20.482;2023-05-02T08:51:41;99981.28;;;21.72;nan
21153;BME280;10734;44.792;20.482;2023-05-02T08:54:11;99990.16;;;21.92;nan
21153;BME280;10734;44.792;20.482;2023-05-02T08:56:42;99991.97;;;22.09;nan
21153;BME280;10734;44.792;20.482;2023-05-02T08:59:08;99991.50;;;21.88;nan
21153;BME280;10734;44.792;20.482;2023-05-02T09:01:36;99986.47;;;21.83;nan
21153;BME280;10734;44.792;20.482;2023-05-02T09:04:03;99988.16;;;22.02;nan
21153;BME280;10734;44.792;20.482;2023-05-02T09:06:30;99985.25;;;22.04;nan
21153;BME280;10734;44.792;20.482;2023-05-02T09:08:59;99981.44;;;22.57;nan
21153;BME280;10734;44.792;20.482;2023-05-02T09:11:26;100001.25;;;22.77;nan
21153;BME280;10734;44.792;20.482;2023-05-02T09:13:53;99987.88;;;22.82;nan
21153;BME280;10734;44.792;20.482;2023-05-02T09:16:24;100000.81;;;22.55;nan
21153;BME280;10734;44.792;20.482;2023-05-02T09:18:54;99985.06;;;22.65;nan
21153;BME280;10734;44.792;20.482;2023-05-02T09:21:25;99986.75;;;22.58;nan
21153;BME280;10734;44.792;20.482;2023-05-02T09:23:54;99975.47;;;23.04;nan
21153;BME280;10734;44.792;20.482;2023-05-02T09:26:28;99979.97;;;23.54;nan
21153;BME280;10734;44.792;20.482;2023-05-02T09:28:59;99985.44;;;23.46;nan
21153;BME280;10734;44.792;20.482;2023-05-02T09:31:31;99984.75;;;23.35;nan
21153;BME280;10734;44.792;20.482;2023-05-02T09:34:15;99975.84;;;23.58;nan
21153;BME280;10734;44.792;20.482;2023-05-02T09:36:47;99976.34;;;23.61;nan
21153;BME280;10734;44.792;20.482;2023-05-02T09:39:18;99954.72;;;23.83;nan
21153;BME280;10734;44.792;20.482;2023-05-02T09:41:48;99978.72;;;24.14;nan
21153;BME280;10734;44.792;20.482;2023-05-02T09:44:17;99978.75;;;24.05;nan
21153;BME280;10734;44.792;20.482;2023-05-02T09:46:46;99973.97;;;24.39;nan
21153;BME280;10734;44.792;20.482;2023-05-02T09:49:14;99967.72;;;24.14;nan
21153;BME280;10734;44.792;20.482;2023-05-02T09:51:45;99981.59;;;24.28;nan
21153;BME280;10734;44.792;20.482;2023-05-02T09:54:13;99980.41;;;24.23;nan
21153;BME280;10734;44.792;20.482;2023-05-02T09:56:53;99975.81;;;24.07;nan
21153;BME280;10734;44.792;20.482;2023-05-02T09:59:22;99968.66;;;24.37;nan
21153;BME280;10734;44.792;20.482;2023-05-02T10:01:55;99982.28;;;24.78;nan
21153;BME280;10734;44.792;20.482;2023-05-02T10:04:23;99968.34;;;24.32;nan
21153;BME280;10734;44.792;20.482;2023-05-02T10:06:52;99958.25;;;24.16;nan
21153;BME280;10734;44.792;20.482;2023-05-02T10:09:22;99973.44;;;23.79;nan
21153;BME280;10734;44.792;20.482;2023-05-02T10:11:53;99984.59;;;23.94;nan
21153;BME280;10734;44.792;20.482;2023-05-02T10:14:21;99967.59;;;24.54;nan
21153;BME280;10734;44.792;20.482;2023-05-02T10:17:04;99946.00;;;24.74;nan
21153;BME280;10734;44.792;20.482;2023-05-02T10:22:11;99958.06;;;24.65;nan
21153;BME280;10734;44.792;20.482;2023-05-02T10:24:39;99956.13;;;24.43;nan
21153;BME280;10734;44.792;20.482;2023-05-02T10:27:07;99950.03;;;24.55;nan
21153;BME280;10734;44.792;20.482;2023-05-02T10:29:34;99954.88;;;24.85;nan
21153;BME280;10734;44.792;20.482;2023-05-02T10:32:02;99954.16;;;24.91;nan
21153;BME280;10734;44.792;20.482;2023-05-02T10:34:31;99963.16;;;24.85;nan
21153;BME280;10734;44.792;20.482;2023-05-02T10:36:59;99952.97;;;24.85;nan
21153;BME280;10734;44.792;20.482;2023-05-02T10:39:30;99951.19;;;25.00;nan
21153;BME280;10734;44.792;20.482;2023-05-02T10:41:58;99950.78;;;25.35;nan
21153;BME280;10734;44.792;20.482;2023-05-02T10:44:34;99965.44;;;25.35;nan
21153;BME280;10734;44.792;20.482;2023-05-02T10:49:54;99962.69;;;25.04;nan
21153;BME280;10734;44.792;20.482;2023-05-02T10:52:32;99932.16;;;24.60;nan
21153;BME280;10734;44.792;20.482;2023-05-02T10:55:20;99960.66;;;24.67;nan
21153;BME280;10734;44.792;20.482;2023-05-02T11:00:29;99952.06;;;24.62;nan
21153;BME280;10734;44.792;20.482;2023-05-02T11:02:56;99954.72;;;25.17;nan
21153;BME280;10734;44.792;20.482;2023-05-02T11:05:24;99949.78;;;25.05;nan
21153;BME280;10734;44.792;20.482;2023-05-02T11:10:45;99957.06;;;25.89;nan
21153;BME280;10734;44.792;20.482;2023-05-02T11:13:12;99958.75;;;25.90;nan
21153;BME280;10734;44.792;20.482;2023-05-02T11:18:12;99958.41;;;25.70;nan
21153;BME280;10734;44.792;20.482;2023-05-02T11:20:43;99951.75;;;26.03;nan
21153;BME280;10734;44.792;20.482;2023-05-02T11:25:55;99961.84;;;26.40;nan
21153;BME280;10734;44.792;20.482;2023-05-02T11:28:40;99952.63;;;26.33;nan
21153;BME280;10734;44.792;20.482;2023-05-02T11:34:02;99953.84;;;26.30;nan
21153;BME280;10734;44.792;20.482;2023-05-02T11:36:32;99951.88;;;26.54;nan
21153;BME280;10734;44.792;20.482;2023-05-02T11:39:03;99948.34;;;26.60;nan
21153;BME280;10734;44.792;20.482;2023-05-02T11:41:43;99948.41;;;26.67;nan
21153;BME280;10734;44.792;20.482;2023-05-02T11:44:12;99938.00;;;26.83;nan
21153;BME280;10734;44.792;20.482;2023-05-02T11:46:39;99953.69;;;26.83;nan
21153;BME280;10734;44.792;20.482;2023-05-02T11:49:06;99936.25;;;26.97;nan
21153;BME280;10734;44.792;20.482;2023-05-02T11:51:35;99952.94;;;27.10;nan
21153;BME280;10734;44.792;20.482;2023-05-02T11:54:02;99945.00;;;26.50;nan
21153;BME280;10734;44.792;20.482;2023-05-02T11:56:29;99952.00;;;26.82;nan
21153;BME280;10734;44.792;20.482;2023-05-02T11:59:01;99953.38;;;26.93;nan
21153;BME280;10734;44.792;20.482;2023-05-02T12:01:29;99951.94;;;27.33;nan
21153;BME280;10734;44.792;20.482;2023-05-02T12:04:06;99956.59;;;27.11;nan
21153;BME280;10734;44.792;20.482;2023-05-02T12:06:33;99959.91;;;27.06;nan
21153;BME280;10734;44.792;20.482;2023-05-02T12:09:13;99946.94;;;26.85;nan
21153;BME280;10734;44.792;20.482;2023-05-02T12:11:43;99952.69;;;26.69;nan
21153;BME280;10734;44.792;20.482;2023-05-02T12:14:10;99941.47;;;26.56;nan
21153;BME280;10734;44.792;20.482;2023-05-02T12:16:36;99955.06;;;26.13;nan
21153;BME280;10734;44.792;20.482;2023-05-02T12:19:03;99954.56;;;25.57;nan
21153;BME280;10734;44.792;20.482;2023-05-02T12:21:31;99950.69;;;26.04;nan
21153;BME280;10734;44.792;20.482;2023-05-02T12:24:00;99946.72;;;26.51;nan
21153;BME280;10734;44.792;20.482;2023-05-02T12:26:27;99947.38;;;25.70;nan
21153;BME280;10734;44.792;20.482;2023-05-02T12:28:59;99949.47;;;26.21;nan
21153;BME280;10734;44.792;20.482;2023-05-02T12:31:27;99929.94;;;26.37;nan
21153;BME280;10734;44.792;20.482;2023-05-02T12:33:56;99932.81;;;26.00;nan
21153;BME280;10734;44.792;20.482;2023-05-02T12:36:26;99933.75;;;25.92;nan
21153;BME280;10734;44.792;20.482;2023-05-02T12:38:57;99929.25;;;25.91;nan
21153;BME280;10734;44.792;20.482;2023-05-02T12:41:36;99935.63;;;25.91;nan
21153;BME280;10734;44.792;20.482;2023-05-02T12:44:04;99942.63;;;25.79;nan
21153;BME280;10734;44.792;20.482;2023-05-02T12:46:31;99934.72;;;25.99;nan
21153;BME280;10734;44.792;20.482;2023-05-02T12:49:08;99927.97;;;26.16;nan
21153;BME280;10734;44.792;20.482;2023-05-02T12:51:38;99929.75;;;26.24;nan
21153;BME280;10734;44.792;20.482;2023-05-02T12:54:05;99924.59;;;25.91;nan
21153;BME280;10734;44.792;20.482;2023-05-02T12:56:39;99935.47;;;26.08;nan
21153;BME280;10734;44.792;20.482;2023-05-02T12:59:06;99946.56;;;25.85;nan
21153;BME280;10734;44.792;20.482;2023-05-02T13:01:33;99932.31;;;25.58;nan
21153;BME280;10734;44.792;20.482;2023-05-02T13:04:00;99929.69;;;25.65;nan
21153;BME280;10734;44.792;20.482;2023-05-02T13:06:27;99928.75;;;25.72;nan
21153;BME280;10734;44.792;20.482;2023-05-02T13:08:54;99928.50;;;25.82;nan
21153;BME280;10734;44.792;20.482;2023-05-02T13:11:21;99921.38;;;26.03;nan
21153;BME280;10734;44.792;20.482;2023-05-02T13:13:47;99923.75;;;25.91;nan
21153;BME280;10734;44.792;20.482;2023-05-02T13:16:14;99922.63;;;26.00;nan
21153;BME280;10734;44.792;20.482;2023-05-02T13:18:41;99923.66;;;26.14;nan
21153;BME280;10734;44.792;20.482;2023-05-02T13:21:08;99918.53;;;25.96;nan
21153;BME280;10734;44.792;20.482;2023-05-02T13:23:35;99925.50;;;25.69;nan
21153;BME280;10734;44.792;20.482;2023-05-02T13:26:01;99920.09;;;25.76;nan
21153;BME280;10734;44.792;20.482;2023-05-02T13:28:28;99917.34;;;25.76;nan
21153;BME280;10734;44.792;20.482;2023-05-02T13:30:58;99904.56;;;25.75;nan
21153;BME280;10734;44.792;20.482;2023-05-02T13:33:25;99911.81;;;25.76;nan
21153;BME280;10734;44.792;20.482;2023-05-02T13:35:52;99909.22;;;25.59;nan
21153;BME280;10734;44.792;20.482;2023-05-02T13:38:18;99910.81;;;25.54;nan
21153;BME280;10734;44.792;20.482;2023-05-02T13:40:45;99901.91;;;25.66;nan
21153;BME280;10734;44.792;20.482;2023-05-02T13:43:12;99900.25;;;25.42;nan
21153;BME280;10734;44.792;20.482;2023-05-02T13:45:38;99911.34;;;25.34;nan
21153;BME280;10734;44.792;20.482;2023-05-02T13:48:05;99904.19;;;25.25;nan
21153;BME280;10734;44.792;20.482;2023-05-02T13:50:32;99903.09;;;25.34;nan
21153;BME280;10734;44.792;20.482;2023-05-02T13:53:02;99893.22;;;25.17;nan
21153;BME280;10734;44.792;20.482;2023-05-02T13:55:29;99891.91;;;25.05;nan
21153;BME280;10734;44.792;20.482;2023-05-02T13:57:56;99891.91;;;24.82;nan
21153;BME280;10734;44.792;20.482;2023-05-02T14:00:23;99892.31;;;24.70;nan
21153;BME280;10734;44.792;20.482;2023-05-02T14:02:49;99893.00;;;24.95;nan
21153;BME280;10734;44.792;20.482;2023-05-02T14:05:16;99887.66;;;25.25;nan
21153;BME280;10734;44.792;20.482;2023-05-02T14:07:43;99886.56;;;25.49;nan
21153;BME280;10734;44.792;20.482;2023-05-02T14:10:09;99892.41;;;25.69;nan
21153;BME280;10734;44.792;20.482;2023-05-02T14:12:36;99883.47;;;25.67;nan
21153;BME280;10734;44.792;20.482;2023-05-02T14:15:04;99878.41;;;25.56;nan
21153;BME280;10734;44.792;20.482;2023-05-02T14:17:31;99885.13;;;25.38;nan
21153;BME280;10734;44.792;20.482;2023-05-02T14:19:58;99889.44;;;25.10;nan
21153;BME280;10734;44.792;20.482;2023-05-02T14:22:25;99883.22;;;24.93;nan
21153;BME280;10734;44.792;20.482;2023-05-02T14:24:51;99889.53;;;25.01;nan
21153;BME280;10734;44.792;20.482;2023-05-02T14:27:18;99889.53;;;25.01;nan
21153;BME280;10734;44.792;20.482;2023-05-02T14:29:45;99883.09;;;25.09;nan
21153;BME280;10734;44.792;20.482;2023-05-02T14:32:13;99884.78;;;25.18;nan
21153;BME280;10734;44.792;20.482;2023-05-02T14:34:40;99893.75;;;25.35;nan
21153;BME280;10734;44.792;20.482;2023-05-02T14:37:07;99884.88;;;25.78;nan
21153;BME280;10734;44.792;20.482;2023-05-02T14:39:35;99885.72;;;25.63;nan
21153;BME280;10734;44.792;20.482;2023-05-02T14:42:02;99891.97;;;25.42;nan
21153;BME280;10734;44.792;20.482;2023-05-02T14:44:29;99883.31;;;25.83;nan
21153;BME280;10734;44.792;20.482;2023-05-02T14:46:56;99879.88;;;25.81;nan
21153;BME280;10734;44.792;20.482;2023-05-02T14:49:23;99891.28;;;25.78;nan
21153;BME280;10734;44.792;20.482;2023-05-02T14:51:51;99884.25;;;26.05;nan
21153;BME280;10734;44.792;20.482;2023-05-02T14:54:18;99885.03;;;25.99;nan
21153;BME280;10734;44.792;20.482;2023-05-02T14:56:45;99881.13;;;25.93;nan
21153;BME280;10734;44.792;20.482;2023-05-02T14:59:13;99878.53;;;26.22;nan
21153;BME280;10734;44.792;20.482;2023-05-02T15:01:40;99876.94;;;26.27;nan
21153;BME280;10734;44.792;20.482;2023-05-02T15:04:07;99881.44;;;25.99;nan
21153;BME280;10734;44.792;20.482;2023-05-02T15:06:34;99882.72;;;26.32;nan
21153;BME280;10734;44.792;20.482;2023-05-02T15:09:02;99883.47;;;26.56;nan
21153;BME280;10734;44.792;20.482;2023-05-02T15:11:29;99884.25;;;26.86;nan
21153;BME280;10734;44.792;20.482;2023-05-02T15:13:56;99879.38;;;26.52;nan
21153;BME280;10734;44.792;20.482;2023-05-02T15:16:25;99886.69;;;26.59;nan
21153;BME280;10734;44.792;20.482;2023-05-02T15:18:52;99888.06;;;26.49;nan
21153;BME280;10734;44.792;20.482;2023-05-02T15:21:19;99883.31;;;26.28;nan
21153;BME280;10734;44.792;20.482;2023-05-02T15:23:46;99884.63;;;25.72;nan
21153;BME280;10734;44.792;20.482;2023-05-02T15:26:13;99882.22;;;25.55;nan
21153;BME280;10734;44.792;20.482;2023-05-02T15:28:39;99881.38;;;25.69;nan
21153;BME280;10734;44.792;20.482;2023-05-02T15:31:06;99874.22;;;25.45;nan
21153;BME280;10734;44.792;20.482;2023-05-02T15:33:33;99879.44;;;24.94;nan
21153;BME280;10734;44.792;20.482;2023-05-02T15:36:00;99875.25;;;24.75;nan
21153;BME280;10734;44.792;20.482;2023-05-02T15:38:27;99878.13;;;25.05;nan
21153;BME280;10734;44.792;20.482;2023-05-02T15:40:58;99874.53;;;25.27;nan
21153;BME280;10734;44.792;20.482;2023-05-02T15:43:25;99873.31;;;25.30;nan
21153;BME280;10734;44.792;20.482;2023-05-02T15:45:54;99876.19;;;25.13;nan
21153;BME280;10734;44.792;20.482;2023-05-02T15:48:22;99878.94;;;25.13;nan
21153;BME280;10734;44.792;20.482;2023-05-02T15:50:49;99880.53;;;25.08;nan
21153;BME280;10734;44.792;20.482;2023-05-02T15:53:16;99876.75;;;25.32;nan
21153;BME280;10734;44.792;20.482;2023-05-02T15:55:43;99879.88;;;25.29;nan
21153;BME280;10734;44.792;20.482;2023-05-02T15:58:12;99880.16;;;25.34;nan
21153;BME280;10734;44.792;20.482;2023-05-02T16:00:39;99876.91;;;25.30;nan
21153;BME280;10734;44.792;20.482;2023-05-02T16:03:05;99882.13;;;25.25;nan
21153;BME280;10734;44.792;20.482;2023-05-02T16:05:33;99881.94;;;25.04;nan
21153;BME280;10734;44.792;20.482;2023-05-02T16:08:00;99879.78;;;24.91;nan
21153;BME280;10734;44.792;20.482;2023-05-02T16:10:27;99888.31;;;24.50;nan
21153;BME280;10734;44.792;20.482;2023-05-02T16:12:54;99880.13;;;24.65;nan
21153;BME280;10734;44.792;20.482;2023-05-02T16:15:21;99890.06;;;24.43;nan
21153;BME280;10734;44.792;20.482;2023-05-02T16:17:49;99887.78;;;24.07;nan
21153;BME280;10734;44.792;20.482;2023-05-02T16:20:16;99898.97;;;23.97;nan
21153;BME280;10734;44.792;20.482;2023-05-02T16:22:44;99889.72;;;23.90;nan
21153;BME280;10734;44.792;20.482;2023-05-02T16:25:13;99897.84;;;23.75;nan
21153;BME280;10734;44.792;20.482;2023-05-02T16:27:40;99900.91;;;23.89;nan
21153;BME280;10734;44.792;20.482;2023-05-02T16:30:08;99897.56;;;24.10;nan
21153;BME280;10734;44.792;20.482;2023-05-02T16:32:35;99896.09;;;23.82;nan
21153;BME280;10734;44.792;20.482;2023-05-02T16:35:06;99898.50;;;23.77;nan
21153;BME280;10734;44.792;20.482;2023-05-02T16:37:36;99894.78;;;23.54;nan
21153;BME280;10734;44.792;20.482;2023-05-02T16:40:03;99887.06;;;23.41;nan
21153;BME280;10734;44.792;20.482;2023-05-02T16:42:31;99905.59;;;23.14;nan
21153;BME280;10734;44.792;20.482;2023-05-02T16:44:58;99898.16;;;22.90;nan
21153;BME280;10734;44.792;20.482;2023-05-02T16:47:25;99900.22;;;22.88;nan
21153;BME280;10734;44.792;20.482;2023-05-02T16:49:54;99910.47;;;22.78;nan
21153;BME280;10734;44.792;20.482;2023-05-02T16:52:21;99902.72;;;22.65;nan
21153;BME280;10734;44.792;20.482;2023-05-02T16:54:49;99898.94;;;22.58;nan
21153;BME280;10734;44.792;20.482;2023-05-02T16:57:16;99909.38;;;22.38;nan
21153;BME280;10734;44.792;20.482;2023-05-02T16:59:47;99902.25;;;22.19;nan
21153;BME280;10734;44.792;20.482;2023-05-02T17:02:15;99915.03;;;22.11;nan
21153;BME280;10734;44.792;20.482;2023-05-02T17:04:42;99904.66;;;21.96;nan
21153;BME280;10734;44.792;20.482;2023-05-02T17:07:09;99917.81;;;21.85;nan
21153;BME280;10734;44.792;20.482;2023-05-02T17:09:39;99916.53;;;21.71;nan
21153;BME280;10734;44.792;20.482;2023-05-02T17:12:09;99921.94;;;21.63;nan
21153;BME280;10734;44.792;20.482;2023-05-02T17:14:37;99927.81;;;21.50;nan
21153;BME280;10734;44.792;20.482;2023-05-02T17:17:06;99926.06;;;21.41;nan
21153;BME280;10734;44.792;20.482;2023-05-02T17:19:33;99928.59;;;21.34;nan
21153;BME280;10734;44.792;20.482;2023-05-02T17:22:01;99925.72;;;21.26;nan
21153;BME280;10734;44.792;20.482;2023-05-02T17:24:30;99934.72;;;21.18;nan
21153;BME280;10734;44.792;20.482;2023-05-02T17:26:58;99933.66;;;21.11;nan
21153;BME280;10734;44.792;20.482;2023-05-02T17:29:24;99942.16;;;21.08;nan
21153;BME280;10734;44.792;20.482;2023-05-02T17:31:51;99946.72;;;20.99;nan
21153;BME280;10734;44.792;20.482;2023-05-02T17:34:18;99941.88;;;20.93;nan
21153;BME280;10734;44.792;20.482;2023-05-02T17:36:51;99949.13;;;20.85;nan
21153;BME280;10734;44.792;20.482;2023-05-02T17:39:17;99952.47;;;20.78;nan
21153;BME280;10734;44.792;20.482;2023-05-02T17:41:44;99950.38;;;20.72;nan
21153;BME280;10734;44.792;20.482;2023-05-02T17:44:11;99956.44;;;20.66;nan
21153;BME280;10734;44.792;20.482;2023-05-02T17:46:37;99955.03;;;20.62;nan
21153;BME280;10734;44.792;20.482;2023-05-02T17:49:04;99953.94;;;20.55;nan
21153;BME280;10734;44.792;20.482;2023-05-02T17:51:31;99954.66;;;20.47;nan
21153;BME280;10734;44.792;20.482;2023-05-02T17:53:59;99960.03;;;20.39;nan
21153;BME280;10734;44.792;20.482;2023-05-02T17:56:26;99955.72;;;20.37;nan
21153;BME280;10734;44.792;20.482;2023-05-02T17:58:53;99957.75;;;20.35;nan
21153;BME280;10734;44.792;20.482;2023-05-02T18:01:21;99975.47;;;20.30;nan
21153;BME280;10734;44.792;20.482;2023-05-02T18:03:48;99971.19;;;20.28;nan
21153;BME280;10734;44.792;20.482;2023-05-02T18:06:16;99977.94;;;20.24;nan
21153;BME280;10734;44.792;20.482;2023-05-02T18:08:44;99979.25;;;20.20;nan
21153;BME280;10734;44.792;20.482;2023-05-02T18:11:18;99979.84;;;20.14;nan
21153;BME280;10734;44.792;20.482;2023-05-02T18:13:45;99986.31;;;20.13;nan
21153;BME280;10734;44.792;20.482;2023-05-02T18:16:12;99990.94;;;20.12;nan
21153;BME280;10734;44.792;20.482;2023-05-02T18:18:39;99996.88;;;20.07;nan
21153;BME280;10734;44.792;20.482;2023-05-02T18:21:06;100000.03;;;20.03;nan
21153;BME280;10734;44.792;20.482;2023-05-02T18:23:34;100004.38;;;19.96;nan
21153;BME280;10734;44.792;20.482;2023-05-02T18:26:01;100011.84;;;19.94;nan
21153;BME280;10734;44.792;20.482;2023-05-02T18:28:28;100016.72;;;19.90;nan
21153;BME280;10734;44.792;20.482;2023-05-02T18:30:55;100016.78;;;19.80;nan
21153;BME280;10734;44.792;20.482;2023-05-02T18:33:21;100019.94;;;19.76;nan
21153;BME280;10734;44.792;20.482;2023-05-02T18:35:48;100026.53;;;19.73;nan
21153;BME280;10734;44.792;20.482;2023-05-02T18:38:15;100030.75;;;19.68;nan
21153;BME280;10734;44.792;20.482;2023-05-02T18:40:42;100040.25;;;19.64;nan
21153;BME280;10734;44.792;20.482;2023-05-02T18:43:09;100036.16;;;19.58;nan
21153;BME280;10734;44.792;20.482;2023-05-02T18:45:36;100040.03;;;19.55;nan
21153;BME280;10734;44.792;20.482;2023-05-02T18:48:03;100032.41;;;19.49;nan
21153;BME280;10734;44.792;20.482;2023-05-02T18:50:30;100038.31;;;19.45;nan
21153;BME280;10734;44.792;20.482;2023-05-02T18:52:57;100039.34;;;19.44;nan
21153;BME280;10734;44.792;20.482;2023-05-02T18:55:23;100033.31;;;19.40;nan
21153;BME280;10734;44.792;20.482;2023-05-02T18:57:50;100046.22;;;19.38;nan
21153;BME280;10734;44.792;20.482;2023-05-02T19:00:17;100039.75;;;19.39;nan
21153;BME280;10734;44.792;20.482;2023-05-02T19:02:46;100042.75;;;19.36;nan
21153;BME280;10734;44.792;20.482;2023-05-02T19:05:13;100043.78;;;19.35;nan
21153;BME280;10734;44.792;20.482;2023-05-02T19:07:40;100036.72;;;19.32;nan
21153;BME280;10734;44.792;20.482;2023-05-02T19:10:08;100043.50;;;19.28;nan
21153;BME280;10734;44.792;20.482;2023-05-02T19:12:36;100046.38;;;19.27;nan
21153;BME280;10734;44.792;20.482;2023-05-02T19:15:04;100059.16;;;19.26;nan
21153;BME280;10734;44.792;20.482;2023-05-02T19:17:32;100053.25;;;19.21;nan
21153;BME280;10734;44.792;20.482;2023-05-02T19:19:58;100055.28;;;19.19;nan
21153;BME280;10734;44.792;20.482;2023-05-02T19:22:25;100045.50;;;19.17;nan
21153;BME280;10734;44.792;20.482;2023-05-02T19:24:53;100051.38;;;19.12;nan
21153;BME280;10734;44.792;20.482;2023-05-02T19:27:19;100047.78;;;19.11;nan
21153;BME280;10734;44.792;20.482;2023-05-02T19:29:46;100049.81;;;19.09;nan
21153;BME280;10734;44.792;20.482;2023-05-02T19:32:13;100048.22;;;19.07;nan
21153;BME280;10734;44.792;20.482;2023-05-02T19:34:40;100050.34;;;19.03;nan
21153;BME280;10734;44.792;20.482;2023-05-02T19:37:07;100048.75;;;19.01;nan